sensor_id;sensor_type;location;lat;lon;timestamp;P1;durP1;ratioP1;P2;durP2;ratioP2
71042;SDS011;58696;52.134;5.500;2022-11-20T00:01:25;16.95;;;8.27;;
71042;SDS011;58696;52.134;5.500;2022-11-20T00:03:55;13.52;;;7.20;;
71042;SDS011;58696;52.134;5.500;2022-11-20T00:06:28;15.13;;;7.40;;
71042;SDS011;58696;52.134;5.500;2022-11-20T00:08:56;12.68;;;6.90;;
71042;SDS011;58696;52.134;5.500;2022-11-20T00:11:24;11.73;;;7.03;;
71042;SDS011;58696;52.134;5.500;2022-11-20T00:13:53;12.95;;;7.03;;
71042;SDS011;58696;52.134;5.500;2022-11-20T00:16:22;12.40;;;6.95;;
71042;SDS011;58696;52.134;5.500;2022-11-20T00:18:50;13.40;;;7.78;;
71042;SDS011;58696;52.134;5.500;2022-11-20T00:21:24;14.48;;;8.10;;
71042;SDS011;58696;52.134;5.500;2022-11-20T00:23:54;12.40;;;7.38;;
71042;SDS011;58696;52.134;5.500;2022-11-20T00:26:27;14.13;;;7.63;;
71042;SDS011;58696;52.134;5.500;2022-11-20T00:28:56;12.60;;;7.07;;
71042;SDS011;58696;52.134;5.500;2022-11-20T00:31:27;13.43;;;7.03;;
71042;SDS011;58696;52.134;5.500;2022-11-20T00:33:54;12.65;;;6.65;;
71042;SDS011;58696;52.134;5.500;2022-11-20T00:36:24;12.13;;;5.82;;
71042;SDS011;58696;52.134;5.500;2022-11-20T00:38:52;9.40;;;5.65;;
71042;SDS011;58696;52.134;5.500;2022-11-20T00:43:47;7.88;;;4.80;;
71042;SDS011;58696;52.134;5.500;2022-11-20T00:46:17;8.95;;;5.38;;
71042;SDS011;58696;52.134;5.500;2022-11-20T00:48:47;10.57;;;5.75;;
71042;SDS011;58696;52.134;5.500;2022-11-20T00:51:16;12.40;;;6.13;;
71042;SDS011;58696;52.134;5.500;2022-11-20T00:53:45;9.77;;;6.03;;
71042;SDS011;58696;52.134;5.500;2022-11-20T00:56:12;12.10;;;6.40;;
71042;SDS011;58696;52.134;5.500;2022-11-20T00:58:42;9.52;;;6.05;;
71042;SDS011;58696;52.134;5.500;2022-11-20T01:01:16;7.88;;;5.40;;
71042;SDS011;58696;52.134;5.500;2022-11-20T01:03:46;9.15;;;5.68;;
71042;SDS011;58696;52.134;5.500;2022-11-20T01:06:20;9.18;;;6.38;;
71042;SDS011;58696;52.134;5.500;2022-11-20T01:08:50;10.60;;;5.68;;
71042;SDS011;58696;52.134;5.500;2022-11-20T01:11:20;9.27;;;6.25;;
71042;SDS011;58696;52.134;5.500;2022-11-20T01:13:58;12.82;;;5.93;;
71042;SDS011;58696;52.134;5.500;2022-11-20T01:16:26;7.13;;;5.03;;
71042;SDS011;58696;52.134;5.500;2022-11-20T01:18:56;9.75;;;6.03;;
71042;SDS011;58696;52.134;5.500;2022-11-20T01:21:31;10.10;;;5.47;;
71042;SDS011;58696;52.134;5.500;2022-11-20T01:24:02;14.60;;;5.70;;
71042;SDS011;58696;52.134;5.500;2022-11-20T01:26:34;11.20;;;5.55;;
71042;SDS011;58696;52.134;5.500;2022-11-20T01:29:03;10.20;;;6.07;;
71042;SDS011;58696;52.134;5.500;2022-11-20T01:31:32;8.40;;;5.72;;
71042;SDS011;58696;52.134;5.500;2022-11-20T01:34:01;9.32;;;5.28;;
71042;SDS011;58696;52.134;5.500;2022-11-20T01:36:33;11.45;;;5.80;;
71042;SDS011;58696;52.134;5.500;2022-11-20T01:39:03;8.80;;;6.00;;
71042;SDS011;58696;52.134;5.500;2022-11-20T01:41:38;9.70;;;6.07;;
71042;SDS011;58696;52.134;5.500;2022-11-20T01:44:44;11.70;;;5.72;;
71042;SDS011;58696;52.134;5.500;2022-11-20T01:52:43;8.68;;;5.28;;
71042;SDS011;58696;52.134;5.500;2022-11-20T01:55:13;8.90;;;5.50;;
71042;SDS011;58696;52.134;5.500;2022-11-20T01:57:43;7.82;;;5.28;;
71042;SDS011;58696;52.134;5.500;2022-11-20T02:00:12;10.88;;;5.50;;
71042;SDS011;58696;52.134;5.500;2022-11-20T02:02:45;8.55;;;5.18;;
71042;SDS011;58696;52.134;5.500;2022-11-20T02:07:46;14.43;;;5.57;;
71042;SDS011;58696;52.134;5.500;2022-11-20T02:10:13;8.82;;;5.38;;
71042;SDS011;58696;52.134;5.500;2022-11-20T02:12:41;10.48;;;6.32;;
71042;SDS011;58696;52.134;5.500;2022-11-20T02:15:26;8.20;;;5.22;;
71042;SDS011;58696;52.134;5.500;2022-11-20T02:17:55;10.55;;;5.97;;
71042;SDS011;58696;52.134;5.500;2022-11-20T02:20:22;13.40;;;6.30;;
71042;SDS011;58696;52.134;5.500;2022-11-20T02:23:07;10.05;;;5.75;;
71042;SDS011;58696;52.134;5.500;2022-11-20T02:25:34;11.15;;;6.28;;
71042;SDS011;58696;52.134;5.500;2022-11-20T02:30:30;10.25;;;5.95;;
71042;SDS011;58696;52.134;5.500;2022-11-20T02:32:57;10.68;;;5.88;;
71042;SDS011;58696;52.134;5.500;2022-11-20T02:37:52;8.02;;;4.65;;
71042;SDS011;58696;52.134;5.500;2022-11-20T02:40:22;8.45;;;5.40;;
71042;SDS011;58696;52.134;5.500;2022-11-20T02:42:52;7.25;;;4.70;;
71042;SDS011;58696;52.134;5.500;2022-11-20T02:45:20;10.55;;;5.50;;
71042;SDS011;58696;52.134;5.500;2022-11-20T02:47:47;10.52;;;6.15;;
71042;SDS011;58696;52.134;5.500;2022-11-20T02:50:18;12.93;;;6.35;;
71042;SDS011;58696;52.134;5.500;2022-11-20T02:52:45;8.43;;;5.47;;
71042;SDS011;58696;52.134;5.500;2022-11-20T02:55:13;7.55;;;5.25;;
71042;SDS011;58696;52.134;5.500;2022-11-20T02:57:40;7.72;;;5.10;;
71042;SDS011;58696;52.134;5.500;2022-11-20T03:00:06;12.77;;;5.78;;
71042;SDS011;58696;52.134;5.500;2022-11-20T03:02:36;7.82;;;5.18;;
71042;SDS011;58696;52.134;5.500;2022-11-20T03:05:03;7.68;;;5.07;;
71042;SDS011;58696;52.134;5.500;2022-11-20T03:07:30;10.43;;;5.97;;
71042;SDS011;58696;52.134;5.500;2022-11-20T03:09:57;10.43;;;6.07;;
71042;SDS011;58696;52.134;5.500;2022-11-20T03:12:24;11.10;;;5.18;;
71042;SDS011;58696;52.134;5.500;2022-11-20T03:14:51;10.43;;;6.03;;
71042;SDS011;58696;52.134;5.500;2022-11-20T03:17:21;9.25;;;5.75;;
71042;SDS011;58696;52.134;5.500;2022-11-20T03:19:50;10.00;;;5.97;;
71042;SDS011;58696;52.134;5.500;2022-11-20T03:22:19;9.88;;;5.65;;
71042;SDS011;58696;52.134;5.500;2022-11-20T03:24:45;9.95;;;5.85;;
71042;SDS011;58696;52.134;5.500;2022-11-20T03:27:12;8.82;;;5.05;;
71042;SDS011;58696;52.134;5.500;2022-11-20T03:29:39;8.35;;;5.18;;
71042;SDS011;58696;52.134;5.500;2022-11-20T03:32:05;8.20;;;5.18;;
71042;SDS011;58696;52.134;5.500;2022-11-20T03:34:32;8.90;;;5.20;;
71042;SDS011;58696;52.134;5.500;2022-11-20T03:37:01;7.82;;;4.78;;
71042;SDS011;58696;52.134;5.500;2022-11-20T03:39:28;7.95;;;4.70;;
71042;SDS011;58696;52.134;5.500;2022-11-20T03:41:57;24.65;;;6.60;;
71042;SDS011;58696;52.134;5.500;2022-11-20T03:44:23;8.45;;;5.28;;
71042;SDS011;58696;52.134;5.500;2022-11-20T03:46:50;8.52;;;5.13;;
71042;SDS011;58696;52.134;5.500;2022-11-20T03:49:17;10.68;;;5.63;;
71042;SDS011;58696;52.134;5.500;2022-11-20T03:51:46;7.67;;;4.90;;
71042;SDS011;58696;52.134;5.500;2022-11-20T03:54:16;12.18;;;6.05;;
71042;SDS011;58696;52.134;5.500;2022-11-20T03:56:43;7.45;;;5.55;;
71042;SDS011;58696;52.134;5.500;2022-11-20T03:59:10;16.15;;;5.85;;
71042;SDS011;58696;52.134;5.500;2022-11-20T04:01:40;8.30;;;5.00;;
71042;SDS011;58696;52.134;5.500;2022-11-20T04:04:11;9.15;;;5.35;;
71042;SDS011;58696;52.134;5.500;2022-11-20T04:06:38;8.25;;;5.35;;
71042;SDS011;58696;52.134;5.500;2022-11-20T04:09:06;9.40;;;5.15;;
71042;SDS011;58696;52.134;5.500;2022-11-20T04:11:34;7.13;;;4.78;;
71042;SDS011;58696;52.134;5.500;2022-11-20T04:14:04;9.27;;;5.72;;
71042;SDS011;58696;52.134;5.500;2022-11-20T04:16:33;7.70;;;5.35;;
71042;SDS011;58696;52.134;5.500;2022-11-20T04:19:02;9.75;;;5.05;;
71042;SDS011;58696;52.134;5.500;2022-11-20T04:21:30;5.85;;;3.72;;
71042;SDS011;58696;52.134;5.500;2022-11-20T04:23:57;8.35;;;5.18;;
71042;SDS011;58696;52.134;5.500;2022-11-20T04:26:25;9.00;;;5.60;;
71042;SDS011;58696;52.134;5.500;2022-11-20T04:28:53;9.35;;;5.53;;
71042;SDS011;58696;52.134;5.500;2022-11-20T04:31:22;11.25;;;5.60;;
71042;SDS011;58696;52.134;5.500;2022-11-20T04:33:50;11.85;;;6.05;;
71042;SDS011;58696;52.134;5.500;2022-11-20T04:36:17;8.13;;;5.25;;
71042;SDS011;58696;52.134;5.500;2022-11-20T04:38:51;9.40;;;5.75;;
71042;SDS011;58696;52.134;5.500;2022-11-20T04:41:23;9.05;;;5.47;;
71042;SDS011;58696;52.134;5.500;2022-11-20T04:43:52;9.13;;;5.07;;
71042;SDS011;58696;52.134;5.500;2022-11-20T04:46:32;5.50;;;3.65;;
71042;SDS011;58696;52.134;5.500;2022-11-20T04:49:06;4.18;;;3.20;;
71042;SDS011;58696;52.134;5.500;2022-11-20T04:51:35;6.72;;;4.53;;
71042;SDS011;58696;52.134;5.500;2022-11-20T04:54:04;11.57;;;5.07;;
71042;SDS011;58696;52.134;5.500;2022-11-20T04:56:32;10.50;;;5.05;;
71042;SDS011;58696;52.134;5.500;2022-11-20T04:59:01;7.43;;;4.35;;
71042;SDS011;58696;52.134;5.500;2022-11-20T05:01:28;10.63;;;5.30;;
71042;SDS011;58696;52.134;5.500;2022-11-20T05:03:58;9.32;;;5.30;;
71042;SDS011;58696;52.134;5.500;2022-11-20T05:06:25;8.13;;;5.28;;
71042;SDS011;58696;52.134;5.500;2022-11-20T05:08:55;9.32;;;5.63;;
71042;SDS011;58696;52.134;5.500;2022-11-20T05:11:22;9.63;;;5.05;;
71042;SDS011;58696;52.134;5.500;2022-11-20T05:13:50;7.28;;;5.15;;
71042;SDS011;58696;52.134;5.500;2022-11-20T05:16:21;10.45;;;6.13;;
71042;SDS011;58696;52.134;5.500;2022-11-20T05:18:50;8.52;;;5.45;;
71042;SDS011;58696;52.134;5.500;2022-11-20T05:21:19;8.10;;;4.80;;
71042;SDS011;58696;52.134;5.500;2022-11-20T05:23:46;9.15;;;4.93;;
71042;SDS011;58696;52.134;5.500;2022-11-20T05:26:14;12.77;;;5.80;;
71042;SDS011;58696;52.134;5.500;2022-11-20T05:28:44;12.73;;;5.47;;
71042;SDS011;58696;52.134;5.500;2022-11-20T05:31:16;8.98;;;4.80;;
71042;SDS011;58696;52.134;5.500;2022-11-20T05:33:55;10.02;;;5.07;;
71042;SDS011;58696;52.134;5.500;2022-11-20T05:36:22;9.15;;;5.57;;
71042;SDS011;58696;52.134;5.500;2022-11-20T05:38:49;6.75;;;4.95;;
71042;SDS011;58696;52.134;5.500;2022-11-20T05:41:22;7.15;;;4.80;;
71042;SDS011;58696;52.134;5.500;2022-11-20T05:43:50;14.60;;;6.47;;
71042;SDS011;58696;52.134;5.500;2022-11-20T05:48:53;12.55;;;5.88;;
71042;SDS011;58696;52.134;5.500;2022-11-20T05:51:20;8.18;;;5.38;;
71042;SDS011;58696;52.134;5.500;2022-11-20T05:53:46;9.95;;;5.22;;
71042;SDS011;58696;52.134;5.500;2022-11-20T05:56:18;15.27;;;6.00;;
71042;SDS011;58696;52.134;5.500;2022-11-20T05:58:46;10.35;;;5.22;;
71042;SDS011;58696;52.134;5.500;2022-11-20T06:01:15;8.88;;;5.43;;
71042;SDS011;58696;52.134;5.500;2022-11-20T06:06:12;9.07;;;4.65;;
71042;SDS011;58696;52.134;5.500;2022-11-20T06:08:40;13.90;;;5.25;;
71042;SDS011;58696;52.134;5.500;2022-11-20T06:11:08;11.55;;;5.32;;
71042;SDS011;58696;52.134;5.500;2022-11-20T06:13:36;8.32;;;5.35;;
71042;SDS011;58696;52.134;5.500;2022-11-20T06:16:07;13.63;;;6.65;;
71042;SDS011;58696;52.134;5.500;2022-11-20T06:18:34;8.98;;;6.43;;
71042;SDS011;58696;52.134;5.500;2022-11-20T06:23:33;11.23;;;6.72;;
71042;SDS011;58696;52.134;5.500;2022-11-20T06:26:01;12.88;;;6.82;;
71042;SDS011;58696;52.134;5.500;2022-11-20T06:28:29;10.48;;;5.78;;
71042;SDS011;58696;52.134;5.500;2022-11-20T06:30:56;7.93;;;5.53;;
71042;SDS011;58696;52.134;5.500;2022-11-20T06:33:23;6.45;;;4.53;;
71042;SDS011;58696;52.134;5.500;2022-11-20T06:35:50;9.32;;;5.28;;
71042;SDS011;58696;52.134;5.500;2022-11-20T06:38:25;8.02;;;5.13;;
71042;SDS011;58696;52.134;5.500;2022-11-20T06:40:53;7.00;;;4.80;;
71042;SDS011;58696;52.134;5.500;2022-11-20T06:43:20;10.05;;;5.25;;
71042;SDS011;58696;52.134;5.500;2022-11-20T06:45:54;8.18;;;5.18;;
71042;SDS011;58696;52.134;5.500;2022-11-20T06:48:21;9.07;;;5.13;;
71042;SDS011;58696;52.134;5.500;2022-11-20T06:50:49;8.85;;;4.97;;
71042;SDS011;58696;52.134;5.500;2022-11-20T06:53:16;10.23;;;5.38;;
71042;SDS011;58696;52.134;5.500;2022-11-20T06:55:43;7.95;;;4.30;;
71042;SDS011;58696;52.134;5.500;2022-11-20T06:58:14;11.35;;;5.20;;
71042;SDS011;58696;52.134;5.500;2022-11-20T07:00:41;10.10;;;5.28;;
71042;SDS011;58696;52.134;5.500;2022-11-20T07:03:09;9.43;;;5.70;;
71042;SDS011;58696;52.134;5.500;2022-11-20T07:05:38;7.50;;;5.25;;
71042;SDS011;58696;52.134;5.500;2022-11-20T07:08:08;8.80;;;4.97;;
71042;SDS011;58696;52.134;5.500;2022-11-20T07:10:34;12.98;;;5.78;;
71042;SDS011;58696;52.134;5.500;2022-11-20T07:13:04;8.18;;;4.93;;
71042;SDS011;58696;52.134;5.500;2022-11-20T07:15:33;9.98;;;5.22;;
71042;SDS011;58696;52.134;5.500;2022-11-20T07:17:59;10.95;;;5.93;;
71042;SDS011;58696;52.134;5.500;2022-11-20T07:20:31;24.67;;;10.48;;
71042;SDS011;58696;52.134;5.500;2022-11-20T07:22:58;15.65;;;8.40;;
71042;SDS011;58696;52.134;5.500;2022-11-20T07:25:25;13.70;;;7.38;;
71042;SDS011;58696;52.134;5.500;2022-11-20T07:27:58;15.05;;;7.65;;
71042;SDS011;58696;52.134;5.500;2022-11-20T07:30:26;15.15;;;7.72;;
71042;SDS011;58696;52.134;5.500;2022-11-20T07:32:54;11.65;;;6.50;;
71042;SDS011;58696;52.134;5.500;2022-11-20T07:35:22;14.80;;;6.53;;
71042;SDS011;58696;52.134;5.500;2022-11-20T07:37:50;11.00;;;7.10;;
71042;SDS011;58696;52.134;5.500;2022-11-20T07:40:17;11.93;;;6.43;;
71042;SDS011;58696;52.134;5.500;2022-11-20T07:42:47;15.38;;;5.85;;
71042;SDS011;58696;52.134;5.500;2022-11-20T07:45:19;9.68;;;5.50;;
71042;SDS011;58696;52.134;5.500;2022-11-20T07:47:47;13.30;;;6.32;;
71042;SDS011;58696;52.134;5.500;2022-11-20T07:50:14;10.50;;;5.60;;
71042;SDS011;58696;52.134;5.500;2022-11-20T07:52:42;14.65;;;6.53;;
71042;SDS011;58696;52.134;5.500;2022-11-20T07:55:09;15.00;;;6.43;;
71042;SDS011;58696;52.134;5.500;2022-11-20T07:57:38;12.40;;;7.50;;
71042;SDS011;58696;52.134;5.500;2022-11-20T08:00:06;14.73;;;7.35;;
71042;SDS011;58696;52.134;5.500;2022-11-20T08:02:37;15.07;;;7.72;;
71042;SDS011;58696;52.134;5.500;2022-11-20T08:05:07;14.80;;;8.15;;
71042;SDS011;58696;52.134;5.500;2022-11-20T08:07:36;13.57;;;7.50;;
71042;SDS011;58696;52.134;5.500;2022-11-20T08:10:07;12.45;;;7.68;;
71042;SDS011;58696;52.134;5.500;2022-11-20T08:12:35;15.25;;;7.55;;
71042;SDS011;58696;52.134;5.500;2022-11-20T08:15:20;12.07;;;7.72;;
71042;SDS011;58696;52.134;5.500;2022-11-20T08:17:47;13.65;;;7.75;;
71042;SDS011;58696;52.134;5.500;2022-11-20T08:20:38;13.48;;;7.95;;
71042;SDS011;58696;52.134;5.500;2022-11-20T08:23:07;15.23;;;7.95;;
71042;SDS011;58696;52.134;5.500;2022-11-20T08:25:34;12.02;;;7.18;;
71042;SDS011;58696;52.134;5.500;2022-11-20T08:28:04;12.63;;;7.30;;
71042;SDS011;58696;52.134;5.500;2022-11-20T08:30:46;18.27;;;7.57;;
71042;SDS011;58696;52.134;5.500;2022-11-20T08:33:16;10.95;;;7.15;;
71042;SDS011;58696;52.134;5.500;2022-11-20T08:35:44;13.32;;;7.38;;
71042;SDS011;58696;52.134;5.500;2022-11-20T08:38:13;8.85;;;5.55;;
71042;SDS011;58696;52.134;5.500;2022-11-20T08:40:40;10.23;;;6.60;;
71042;SDS011;58696;52.134;5.500;2022-11-20T08:43:29;12.82;;;6.50;;
71042;SDS011;58696;52.134;5.500;2022-11-20T08:45:56;14.27;;;7.10;;
71042;SDS011;58696;52.134;5.500;2022-11-20T08:48:24;18.00;;;7.15;;
71042;SDS011;58696;52.134;5.500;2022-11-20T08:50:51;12.63;;;7.53;;
71042;SDS011;58696;52.134;5.500;2022-11-20T08:53:18;10.38;;;7.35;;
71042;SDS011;58696;52.134;5.500;2022-11-20T08:55:44;9.38;;;6.18;;
71042;SDS011;58696;52.134;5.500;2022-11-20T08:58:14;11.65;;;6.47;;
71042;SDS011;58696;52.134;5.500;2022-11-20T09:00:41;13.18;;;7.07;;
71042;SDS011;58696;52.134;5.500;2022-11-20T09:03:07;13.95;;;7.28;;
71042;SDS011;58696;52.134;5.500;2022-11-20T09:05:35;11.75;;;7.50;;
71042;SDS011;58696;52.134;5.500;2022-11-20T09:08:04;11.05;;;7.28;;
71042;SDS011;58696;52.134;5.500;2022-11-20T09:10:31;9.48;;;5.53;;
71042;SDS011;58696;52.134;5.500;2022-11-20T09:12:58;10.55;;;6.97;;
71042;SDS011;58696;52.134;5.500;2022-11-20T09:15:25;11.00;;;6.35;;
71042;SDS011;58696;52.134;5.500;2022-11-20T09:17:55;11.73;;;6.78;;
71042;SDS011;58696;52.134;5.500;2022-11-20T09:20:25;11.60;;;3.92;;
71042;SDS011;58696;52.134;5.500;2022-11-20T09:22:53;12.20;;;8.45;;
71042;SDS011;58696;52.134;5.500;2022-11-20T09:25:19;8.85;;;5.55;;
71042;SDS011;58696;52.134;5.500;2022-11-20T09:27:47;11.55;;;7.70;;
71042;SDS011;58696;52.134;5.500;2022-11-20T09:30:14;13.25;;;6.70;;
71042;SDS011;58696;52.134;5.500;2022-11-20T09:32:41;8.30;;;5.77;;
71042;SDS011;58696;52.134;5.500;2022-11-20T09:35:09;12.45;;;6.97;;
71042;SDS011;58696;52.134;5.500;2022-11-20T09:37:37;11.38;;;7.32;;
71042;SDS011;58696;52.134;5.500;2022-11-20T09:40:04;11.25;;;7.53;;
71042;SDS011;58696;52.134;5.500;2022-11-20T09:42:37;13.68;;;7.00;;
71042;SDS011;58696;52.134;5.500;2022-11-20T09:50:36;9.77;;;6.85;;
71042;SDS011;58696;52.134;5.500;2022-11-20T09:56:07;9.38;;;6.20;;
71042;SDS011;58696;52.134;5.500;2022-11-20T09:58:41;9.35;;;6.50;;
71042;SDS011;58696;52.134;5.500;2022-11-20T10:01:17;15.63;;;8.93;;
71042;SDS011;58696;52.134;5.500;2022-11-20T10:06:56;16.38;;;8.15;;
71042;SDS011;58696;52.134;5.500;2022-11-20T10:09:59;14.02;;;6.90;;
71042;SDS011;58696;52.134;5.500;2022-11-20T10:20:58;9.85;;;6.93;;
71042;SDS011;58696;52.134;5.500;2022-11-20T10:29:10;8.25;;;5.00;;
71042;SDS011;58696;52.134;5.500;2022-11-20T10:31:40;14.45;;;9.18;;
71042;SDS011;58696;52.134;5.500;2022-11-20T10:34:26;13.60;;;6.93;;
71042;SDS011;58696;52.134;5.500;2022-11-20T10:37:11;13.93;;;8.60;;
71042;SDS011;58696;52.134;5.500;2022-11-20T10:42:44;12.45;;;8.10;;
71042;SDS011;58696;52.134;5.500;2022-11-20T10:50:27;10.98;;;7.65;;
71042;SDS011;58696;52.134;5.500;2022-11-20T11:01:19;14.93;;;9.27;;
71042;SDS011;58696;52.134;5.500;2022-11-20T11:03:53;13.20;;;8.00;;
71042;SDS011;58696;52.134;5.500;2022-11-20T11:06:25;19.65;;;9.38;;
71042;SDS011;58696;52.134;5.500;2022-11-20T11:09:02;14.25;;;8.60;;
71042;SDS011;58696;52.134;5.500;2022-11-20T11:11:37;17.02;;;8.20;;
71042;SDS011;58696;52.134;5.500;2022-11-20T11:14:09;13.13;;;8.93;;
71042;SDS011;58696;52.134;5.500;2022-11-20T11:16:55;16.38;;;9.95;;
71042;SDS011;58696;52.134;5.500;2022-11-20T11:19:34;15.60;;;9.25;;
71042;SDS011;58696;52.134;5.500;2022-11-20T11:22:02;18.27;;;9.90;;
71042;SDS011;58696;52.134;5.500;2022-11-20T11:24:51;12.77;;;9.32;;
71042;SDS011;58696;52.134;5.500;2022-11-20T11:27:20;17.35;;;10.60;;
71042;SDS011;58696;52.134;5.500;2022-11-20T11:29:49;16.70;;;11.10;;
71042;SDS011;58696;52.134;5.500;2022-11-20T11:32:20;17.77;;;11.18;;
71042;SDS011;58696;52.134;5.500;2022-11-20T11:35:01;16.92;;;9.98;;
71042;SDS011;58696;52.134;5.500;2022-11-20T11:37:33;15.23;;;10.43;;
71042;SDS011;58696;52.134;5.500;2022-11-20T11:40:08;12.20;;;7.95;;
71042;SDS011;58696;52.134;5.500;2022-11-20T11:42:54;14.13;;;8.98;;
71042;SDS011;58696;52.134;5.500;2022-11-20T11:45:24;16.60;;;10.35;;
71042;SDS011;58696;52.134;5.500;2022-11-20T11:47:55;18.55;;;11.13;;
71042;SDS011;58696;52.134;5.500;2022-11-20T11:50:25;15.38;;;10.25;;
71042;SDS011;58696;52.134;5.500;2022-11-20T12:01:00;19.58;;;11.63;;
71042;SDS011;58696;52.134;5.500;2022-11-20T12:03:38;17.20;;;10.60;;
71042;SDS011;58696;52.134;5.500;2022-11-20T12:06:15;16.95;;;10.45;;
71042;SDS011;58696;52.134;5.500;2022-11-20T12:08:53;18.77;;;9.75;;
71042;SDS011;58696;52.134;5.500;2022-11-20T12:14:17;12.65;;;7.55;;
71042;SDS011;58696;52.134;5.500;2022-11-20T12:16:50;16.80;;;10.93;;
71042;SDS011;58696;52.134;5.500;2022-11-20T12:19:19;17.00;;;10.50;;
71042;SDS011;58696;52.134;5.500;2022-11-20T12:30:38;12.45;;;7.57;;
71042;SDS011;58696;52.134;5.500;2022-11-20T12:33:20;17.00;;;11.48;;
71042;SDS011;58696;52.134;5.500;2022-11-20T12:41:50;14.60;;;9.15;;
71042;SDS011;58696;52.134;5.500;2022-11-20T13:02:23;18.00;;;10.05;;
71042;SDS011;58696;52.134;5.500;2022-11-20T13:07:42;20.42;;;10.93;;
71042;SDS011;58696;52.134;5.500;2022-11-20T13:12:55;16.23;;;10.65;;
71042;SDS011;58696;52.134;5.500;2022-11-20T13:18:18;14.30;;;8.43;;
71042;SDS011;58696;52.134;5.500;2022-11-20T13:20:46;16.05;;;8.25;;
71042;SDS011;58696;52.134;5.500;2022-11-20T13:26:04;15.73;;;8.35;;
71042;SDS011;58696;52.134;5.500;2022-11-20T13:28:40;14.73;;;8.32;;
71042;SDS011;58696;52.134;5.500;2022-11-20T13:31:23;12.05;;;7.88;;
71042;SDS011;58696;52.134;5.500;2022-11-20T13:34:10;12.63;;;7.57;;
71042;SDS011;58696;52.134;5.500;2022-11-20T13:37:23;15.88;;;10.55;;
71042;SDS011;58696;52.134;5.500;2022-11-20T13:45:10;10.15;;;6.35;;
71042;SDS011;58696;52.134;5.500;2022-11-20T13:47:49;11.25;;;7.55;;
71042;SDS011;58696;52.134;5.500;2022-11-20T13:50:55;19.90;;;11.82;;
71042;SDS011;58696;52.134;5.500;2022-11-20T14:01:30;18.45;;;11.18;;
71042;SDS011;58696;52.134;5.500;2022-11-20T14:06:34;14.93;;;8.75;;
71042;SDS011;58696;52.134;5.500;2022-11-20T14:09:13;11.70;;;7.72;;
71042;SDS011;58696;52.134;5.500;2022-11-20T14:11:51;8.40;;;5.80;;
71042;SDS011;58696;52.134;5.500;2022-11-20T14:14:21;18.85;;;11.68;;
71042;SDS011;58696;52.134;5.500;2022-11-20T14:16:52;16.92;;;10.32;;
71042;SDS011;58696;52.134;5.500;2022-11-20T14:19:30;15.90;;;9.18;;
71042;SDS011;58696;52.134;5.500;2022-11-20T14:22:15;13.65;;;8.05;;
71042;SDS011;58696;52.134;5.500;2022-11-20T14:27:28;15.27;;;8.48;;
71042;SDS011;58696;52.134;5.500;2022-11-20T14:30:00;14.25;;;9.40;;
71042;SDS011;58696;52.134;5.500;2022-11-20T14:32:28;18.50;;;9.35;;
71042;SDS011;58696;52.134;5.500;2022-11-20T14:34:59;18.35;;;11.75;;
71042;SDS011;58696;52.134;5.500;2022-11-20T14:37:36;20.58;;;12.18;;
71042;SDS011;58696;52.134;5.500;2022-11-20T14:40:05;16.73;;;10.57;;
71042;SDS011;58696;52.134;5.500;2022-11-20T14:42:49;15.90;;;9.52;;
71042;SDS011;58696;52.134;5.500;2022-11-20T14:45:15;19.33;;;10.88;;
71042;SDS011;58696;52.134;5.500;2022-11-20T14:47:43;19.67;;;10.55;;
71042;SDS011;58696;52.134;5.500;2022-11-20T14:50:16;17.95;;;10.60;;
71042;SDS011;58696;52.134;5.500;2022-11-20T14:52:59;16.48;;;10.52;;
71042;SDS011;58696;52.134;5.500;2022-11-20T14:55:27;20.65;;;10.43;;
71042;SDS011;58696;52.134;5.500;2022-11-20T14:58:00;19.25;;;10.68;;
71042;SDS011;58696;52.134;5.500;2022-11-20T15:00:31;16.00;;;10.93;;
71042;SDS011;58696;52.134;5.500;2022-11-20T15:02:59;21.50;;;12.10;;
71042;SDS011;58696;52.134;5.500;2022-11-20T15:05:43;19.30;;;12.18;;
71042;SDS011;58696;52.134;5.500;2022-11-20T15:08:12;20.50;;;12.55;;
71042;SDS011;58696;52.134;5.500;2022-11-20T15:10:49;20.83;;;11.05;;
71042;SDS011;58696;52.134;5.500;2022-11-20T15:16:09;19.40;;;10.95;;
71042;SDS011;58696;52.134;5.500;2022-11-20T15:18:47;18.23;;;9.25;;
71042;SDS011;58696;52.134;5.500;2022-11-20T15:21:15;17.57;;;10.50;;
71042;SDS011;58696;52.134;5.500;2022-11-20T15:23:45;27.20;;;12.40;;
71042;SDS011;58696;52.134;5.500;2022-11-20T15:26:15;19.00;;;11.50;;
71042;SDS011;58696;52.134;5.500;2022-11-20T15:28:51;18.70;;;11.25;;
71042;SDS011;58696;52.134;5.500;2022-11-20T15:31:19;19.58;;;11.02;;
71042;SDS011;58696;52.134;5.500;2022-11-20T15:33:48;18.63;;;12.05;;
71042;SDS011;58696;52.134;5.500;2022-11-20T15:36:15;20.00;;;10.75;;
71042;SDS011;58696;52.134;5.500;2022-11-20T15:38:43;24.37;;;12.07;;
71042;SDS011;58696;52.134;5.500;2022-11-20T15:41:10;22.80;;;10.68;;
71042;SDS011;58696;52.134;5.500;2022-11-20T15:43:37;20.90;;;12.82;;
71042;SDS011;58696;52.134;5.500;2022-11-20T15:46:05;20.88;;;12.13;;
71042;SDS011;58696;52.134;5.500;2022-11-20T15:48:44;21.05;;;12.23;;
71042;SDS011;58696;52.134;5.500;2022-11-20T15:51:27;16.80;;;11.32;;
71042;SDS011;58696;52.134;5.500;2022-11-20T15:53:57;22.48;;;11.93;;
71042;SDS011;58696;52.134;5.500;2022-11-20T15:56:25;19.00;;;11.32;;
71042;SDS011;58696;52.134;5.500;2022-11-20T15:58:52;22.05;;;12.23;;
71042;SDS011;58696;52.134;5.500;2022-11-20T16:01:22;18.02;;;10.82;;
71042;SDS011;58696;52.134;5.500;2022-11-20T16:03:50;20.17;;;11.40;;
71042;SDS011;58696;52.134;5.500;2022-11-20T16:06:16;19.90;;;12.20;;
71042;SDS011;58696;52.134;5.500;2022-11-20T16:08:44;18.90;;;10.90;;
71042;SDS011;58696;52.134;5.500;2022-11-20T16:11:15;20.80;;;12.68;;
71042;SDS011;58696;52.134;5.500;2022-11-20T16:13:43;20.02;;;10.65;;
71042;SDS011;58696;52.134;5.500;2022-11-20T16:16:29;18.38;;;10.93;;
71042;SDS011;58696;52.134;5.500;2022-11-20T16:18:58;21.10;;;11.63;;
71042;SDS011;58696;52.134;5.500;2022-11-20T16:21:26;12.95;;;8.00;;
71042;SDS011;58696;52.134;5.500;2022-11-20T16:23:58;19.42;;;9.80;;
71042;SDS011;58696;52.134;5.500;2022-11-20T16:26:27;17.98;;;10.68;;
71042;SDS011;58696;52.134;5.500;2022-11-20T16:28:58;17.80;;;10.40;;
71042;SDS011;58696;52.134;5.500;2022-11-20T16:31:25;19.25;;;10.80;;
71042;SDS011;58696;52.134;5.500;2022-11-20T16:33:53;15.55;;;8.90;;
71042;SDS011;58696;52.134;5.500;2022-11-20T16:36:25;17.95;;;11.82;;
71042;SDS011;58696;52.134;5.500;2022-11-20T16:38:54;19.58;;;10.95;;
71042;SDS011;58696;52.134;5.500;2022-11-20T16:41:26;15.52;;;10.52;;
71042;SDS011;58696;52.134;5.500;2022-11-20T16:43:55;19.05;;;10.95;;
71042;SDS011;58696;52.134;5.500;2022-11-20T16:46:24;18.77;;;11.23;;
71042;SDS011;58696;52.134;5.500;2022-11-20T16:51:26;18.75;;;11.93;;
71042;SDS011;58696;52.134;5.500;2022-11-20T16:53:54;20.23;;;11.85;;
71042;SDS011;58696;52.134;5.500;2022-11-20T16:56:24;20.73;;;11.43;;
71042;SDS011;58696;52.134;5.500;2022-11-20T16:58:53;18.90;;;11.85;;
71042;SDS011;58696;52.134;5.500;2022-11-20T17:01:21;15.57;;;11.65;;
71042;SDS011;58696;52.134;5.500;2022-11-20T17:03:55;12.77;;;9.48;;
71042;SDS011;58696;52.134;5.500;2022-11-20T17:06:30;20.02;;;13.00;;
71042;SDS011;58696;52.134;5.500;2022-11-20T17:09:05;18.42;;;10.73;;
71042;SDS011;58696;52.134;5.500;2022-11-20T17:11:35;19.80;;;10.18;;
71042;SDS011;58696;52.134;5.500;2022-11-20T17:14:02;18.92;;;12.55;;
71042;SDS011;58696;52.134;5.500;2022-11-20T17:16:29;20.55;;;10.88;;
71042;SDS011;58696;52.134;5.500;2022-11-20T17:19:00;18.60;;;11.55;;
71042;SDS011;58696;52.134;5.500;2022-11-20T17:23:59;14.60;;;10.40;;